createdAt,value
2023-05-08T00:01:04.960Z,98456.59
2023-05-08T00:03:31.859Z,98461.94
2023-05-08T00:05:58.613Z,98465.66
2023-05-08T00:08:25.320Z,98468.03
2023-05-08T00:10:51.980Z,98467.09
2023-05-08T00:13:18.719Z,98462.91
2023-05-08T00:15:45.570Z,98462.81
2023-05-08T00:18:12.493Z,98463.88
2023-05-08T00:20:39.503Z,98459.53
2023-05-08T00:23:06.152Z,98452.28
2023-05-08T00:25:33.143Z,98459.34
2023-05-08T00:28:00.526Z,98446.50
2023-05-08T00:30:27.585Z,98448.03
2023-05-08T00:32:54.426Z,98455.94
2023-05-08T00:35:21.794Z,98452.41
2023-05-08T00:37:48.402Z,98450.16
2023-05-08T00:40:15.556Z,98447.66
2023-05-08T00:42:42.590Z,98448.91
2023-05-08T00:45:09.793Z,98449.13
2023-05-08T00:47:36.604Z,98444.22
2023-05-08T00:50:03.665Z,98444.91
2023-05-08T00:52:33.108Z,98454.41
2023-05-08T00:55:02.291Z,98449.09
2023-05-08T00:57:32.451Z,98448.69
2023-05-08T01:00:01.149Z,98449.31
2023-05-08T01:02:28.936Z,98448.31
2023-05-08T01:04:56.551Z,98448.44
2023-05-08T01:07:23.139Z,98447.72
2023-05-08T01:09:50.211Z,98448.97
2023-05-08T01:12:35.042Z,98451.41
2023-05-08T01:15:05.055Z,98451.41
2023-05-08T01:17:41.185Z,98451.53
2023-05-08T01:20:15.255Z,98460.19
2023-05-08T01:22:45.130Z,98453.00
2023-05-08T01:25:23.463Z,98459.94
2023-05-08T01:28:18.520Z,98462.19
2023-05-08T01:31:00.122Z,98466.53
2023-05-08T01:33:51.678Z,98463.13
2023-05-08T01:36:45.715Z,98469.28
2023-05-08T01:39:27.330Z,98475.78
2023-05-08T01:42:11.938Z,98476.94
2023-05-08T01:44:47.591Z,98469.38
2023-05-08T01:47:15.931Z,98467.84
2023-05-08T01:49:46.167Z,98466.91
2023-05-08T01:52:28.210Z,98471.31
2023-05-08T01:55:01.741Z,98467.28
2023-05-08T01:57:29.953Z,98469.75
2023-05-08T02:00:00.556Z,98460.22
2023-05-08T02:02:30.219Z,98474.22
2023-05-08T02:04:57.919Z,98469.72
2023-05-08T02:07:25.958Z,98479.13
2023-05-08T02:09:54.719Z,98478.53
2023-05-08T02:12:23.035Z,98479.59
2023-05-08T02:14:52.988Z,98480.56
2023-05-08T02:17:21.140Z,98488.19
2023-05-08T02:19:49.648Z,98483.78
2023-05-08T02:22:18.160Z,98492.19
2023-05-08T02:24:46.054Z,98487.00
2023-05-08T02:27:14.200Z,98484.63
2023-05-08T02:29:42.240Z,98487.09
2023-05-08T02:32:10.420Z,98496.50
2023-05-08T02:34:40.927Z,98490.00
2023-05-08T02:37:13.610Z,98493.41
2023-05-08T02:39:42.200Z,98489.31
2023-05-08T02:42:08.947Z,98503.53
2023-05-08T02:44:35.872Z,98498.38
2023-05-08T02:47:11.606Z,98505.97
2023-05-08T02:49:38.206Z,98505.47
2023-05-08T02:52:28.998Z,98505.84
2023-05-08T02:55:17.076Z,98505.13
2023-05-08T02:57:48.420Z,98506.09
2023-05-08T03:00:22.713Z,98509.25
2023-05-08T03:02:57.631Z,98516.63
2023-05-08T03:05:36.152Z,98513.25
2023-05-08T03:08:16.074Z,98521.53
2023-05-08T03:10:46.743Z,98520.09
2023-05-08T03:13:16.194Z,98514.22
2023-05-08T03:15:47.105Z,98515.75
2023-05-08T03:18:28.606Z,98518.34
2023-05-08T03:20:58.425Z,98520.22
2023-05-08T03:23:28.111Z,98524.38
2023-05-08T03:25:57.751Z,98520.00
2023-05-08T03:28:25.456Z,98535.16
2023-05-08T03:30:55.913Z,98537.75
2023-05-08T03:33:24.438Z,98538.22
2023-05-08T03:35:51.343Z,98540.69
2023-05-08T03:38:18.638Z,98531.72
2023-05-08T03:40:46.006Z,98534.31
2023-05-08T03:43:13.497Z,98523.75
2023-05-08T03:45:41.141Z,98535.38
2023-05-08T03:48:09.541Z,98528.78
2023-05-08T03:50:38.788Z,98535.38
2023-05-08T03:53:09.737Z,98533.72
2023-05-08T03:55:37.184Z,98541.50
2023-05-08T03:58:24.504Z,98534.09
2023-05-08T04:01:09.954Z,98538.91
2023-05-08T04:03:52.953Z,98529.13
2023-05-08T04:06:35.597Z,98538.78
2023-05-08T04:09:27.125Z,98552.47
2023-05-08T04:12:03.404Z,98552.72
2023-05-08T04:14:55.485Z,98557.06
2023-05-08T04:17:39.564Z,98556.28
2023-05-08T04:20:12.213Z,98559.22
2023-05-08T04:22:40.786Z,98557.56
2023-05-08T04:25:09.549Z,98557.69
2023-05-08T04:27:37.349Z,98558.75
2023-05-08T04:30:05.003Z,98560.63
2023-05-08T04:32:35.265Z,98562.38
2023-05-08T04:35:03.372Z,98567.34
2023-05-08T04:37:33.999Z,98575.56
2023-05-08T04:40:05.006Z,98572.19
2023-05-08T04:42:36.509Z,98570.88
2023-05-08T04:45:04.333Z,98579.00
2023-05-08T04:47:31.890Z,98579.09
2023-05-08T04:50:00.063Z,98575.22
2023-05-08T04:52:29.002Z,98577.22
2023-05-08T04:54:55.674Z,98579.63
2023-05-08T04:57:22.295Z,98578.28
2023-05-08T04:59:49.233Z,98571.25
2023-05-08T05:02:16.267Z,98583.22
2023-05-08T05:04:43.584Z,98578.91
2023-05-08T05:07:10.774Z,98582.41
2023-05-08T05:09:39.200Z,98587.38
2023-05-08T05:12:07.269Z,98577.13
2023-05-08T05:14:35.187Z,98572.53
2023-05-08T05:17:01.995Z,98578.66
2023-05-08T05:19:29.497Z,98579.47
2023-05-08T05:21:56.353Z,98589.72
2023-05-08T05:24:23.180Z,98582.91
2023-05-08T05:26:49.734Z,98590.91
2023-05-08T05:29:16.937Z,98584.31
2023-05-08T05:31:43.835Z,98587.25
2023-05-08T05:34:10.972Z,98585.94
2023-05-08T05:36:37.674Z,98583.59
2023-05-08T05:39:04.835Z,98587.75
2023-05-08T05:41:34.136Z,98586.56
2023-05-08T05:44:01.511Z,98591.38
2023-05-08T05:46:32.413Z,98576.63
2023-05-08T05:49:01.385Z,98576.38
2023-05-08T05:51:29.300Z,98586.88
2023-05-08T05:53:57.177Z,98584.53
2023-05-08T05:56:26.163Z,98586.44
2023-05-08T05:58:52.875Z,98583.97
2023-05-08T06:01:19.628Z,98582.41
2023-05-08T06:03:46.707Z,98586.16
2023-05-08T06:06:13.665Z,98587.44
2023-05-08T06:08:40.319Z,98584.72
2023-05-08T06:11:06.983Z,98592.38
2023-05-08T06:13:34.023Z,98590.59
2023-05-08T06:16:01.004Z,98594.84
2023-05-08T06:18:27.846Z,98596.88
2023-05-08T06:20:58.639Z,98589.22
2023-05-08T06:23:26.072Z,98595.31
2023-05-08T06:25:53.604Z,98597.53
2023-05-08T06:28:22.466Z,98591.84
2023-05-08T06:30:49.142Z,98586.66
2023-05-08T06:33:15.950Z,98598.31
2023-05-08T06:35:46.418Z,98593.69
2023-05-08T06:38:13.828Z,98592.38
2023-05-08T06:40:44.385Z,98598.75
2023-05-08T06:43:12.147Z,98592.88
2023-05-08T06:45:39.389Z,98597.38
2023-05-08T06:48:06.848Z,98591.38
2023-05-08T06:50:33.528Z,98597.25
2023-05-08T06:53:00.288Z,98590.47
2023-05-08T06:55:26.913Z,98593.28
2023-05-08T06:57:53.586Z,98595.88
2023-05-08T07:00:20.626Z,98592.66
2023-05-08T07:02:47.438Z,98592.53
2023-05-08T07:05:14.654Z,98579.22
2023-05-08T07:07:42.698Z,98584.50
2023-05-08T07:10:10.083Z,98581.91
2023-05-08T07:12:36.850Z,98583.03
2023-05-08T07:15:13.848Z,98579.28
2023-05-08T07:17:44.836Z,98576.97
2023-05-08T07:20:11.563Z,98585.88
2023-05-08T07:22:38.146Z,98585.50
2023-05-08T07:25:05.451Z,98588.56
2023-05-08T07:27:32.543Z,98587.72
2023-05-08T07:30:03.820Z,98592.34
2023-05-08T07:32:31.726Z,98584.94
2023-05-08T07:34:58.439Z,98594.09
2023-05-08T07:37:25.430Z,98588.91
2023-05-08T07:39:52.036Z,98593.97
2023-05-08T07:42:18.670Z,98590.53
2023-05-08T07:44:53.569Z,98591.25
2023-05-08T07:47:20.879Z,98585.38
2023-05-08T07:49:47.570Z,98585.97
2023-05-08T07:52:14.371Z,98588.69
2023-05-08T07:54:41.129Z,98587.84
2023-05-08T07:57:07.922Z,98590.31
2023-05-08T07:59:34.500Z,98584.31
2023-05-08T08:02:01.386Z,98587.59
2023-05-08T08:04:28.229Z,98590.38
2023-05-08T08:06:55.271Z,98580.69
2023-05-08T08:09:22.124Z,98587.03
2023-05-08T08:11:48.881Z,98588.56
2023-05-08T08:14:15.900Z,98581.66
2023-05-08T08:16:43.025Z,98592.44
2023-05-08T08:19:10.817Z,98589.19
2023-05-08T08:21:43.275Z,98594.16
2023-05-08T08:24:10.208Z,98592.53
2023-05-08T08:26:36.967Z,98584.22
2023-05-08T08:29:03.896Z,98584.75
2023-05-08T08:31:30.626Z,98585.31
2023-05-08T08:33:57.709Z,98585.72
2023-05-08T08:36:24.324Z,98582.50
2023-05-08T08:38:51.013Z,98578.53
2023-05-08T08:41:17.802Z,98581.81
2023-05-08T08:43:44.588Z,98578.94
2023-05-08T08:46:15.781Z,98581.41
2023-05-08T08:48:45.159Z,98578.25
2023-05-08T08:51:17.358Z,98583.03
2023-05-08T08:53:49.294Z,98577.31
2023-05-08T08:56:17.243Z,98578.13
2023-05-08T08:58:54.921Z,98578.69
2023-05-08T09:01:24.070Z,98575.25
2023-05-08T09:03:51.249Z,98570.59
2023-05-08T09:06:19.626Z,98575.97
2023-05-08T09:08:47.305Z,98583.06
2023-05-08T09:11:14.287Z,98576.50
2023-05-08T09:13:40.986Z,98584.31
2023-05-08T09:16:07.838Z,98581.03
2023-05-08T09:18:34.585Z,98583.63
2023-05-08T09:21:01.907Z,98591.69
2023-05-08T09:23:28.841Z,98585.13
2023-05-08T09:25:55.532Z,98585.69
2023-05-08T09:28:24.115Z,98587.19
2023-05-08T09:31:00.544Z,98593.88
2023-05-08T09:33:29.488Z,98588.53
2023-05-08T09:35:57.195Z,98596.91
2023-05-08T09:38:36.811Z,98595.25
2023-05-08T09:41:15.694Z,98586.06
2023-05-08T09:43:44.421Z,98585.53
2023-05-08T09:46:24.367Z,98590.44
2023-05-08T09:48:52.801Z,98597.03
2023-05-08T09:51:21.646Z,98588.50
2023-05-08T09:53:55.710Z,98601.69
2023-05-08T09:56:31.993Z,98599.50
2023-05-08T09:58:59.069Z,98595.50
2023-05-08T10:01:28.883Z,98608.38
2023-05-08T10:03:55.665Z,98604.47
2023-05-08T10:06:22.435Z,98595.69
2023-05-08T10:08:49.657Z,98598.84
2023-05-08T10:11:22.002Z,98602.69
2023-05-08T10:13:48.751Z,98605.59
2023-05-08T10:16:17.491Z,98608.34
2023-05-08T10:18:49.544Z,98607.06
2023-05-08T10:21:17.611Z,98609.16
2023-05-08T10:23:47.075Z,98618.09
2023-05-08T10:26:19.129Z,98609.19
2023-05-08T10:28:59.532Z,98608.09
2023-05-08T10:31:28.763Z,98604.34
2023-05-08T10:33:56.624Z,98602.06
2023-05-08T10:36:27.405Z,98597.19
2023-05-08T10:38:58.007Z,98599.47
2023-05-08T10:41:26.012Z,98595.72
2023-05-08T10:43:54.405Z,98599.38
2023-05-08T10:46:30.140Z,98591.44
2023-05-08T10:49:24.985Z,98591.44
2023-05-08T10:52:16.834Z,98584.66
2023-05-08T10:55:17.022Z,98579.28
2023-05-08T10:58:28.453Z,98568.00
2023-05-08T11:00:59.712Z,98569.50
2023-05-08T11:03:33.048Z,98571.97
2023-05-08T11:06:01.316Z,98569.13
2023-05-08T11:08:29.829Z,98570.78
2023-05-08T11:11:02.463Z,98574.34
2023-05-08T11:13:33.586Z,98567.94
2023-05-08T11:16:00.408Z,98563.91
2023-05-08T11:18:32.477Z,98563.38
2023-05-08T11:21:15.716Z,98561.97
2023-05-08T11:23:42.418Z,98554.50
2023-05-08T11:26:16.589Z,98558.84
2023-05-08T11:28:58.939Z,98549.50
2023-05-08T11:31:52.041Z,98546.81
2023-05-08T11:34:46.021Z,98540.41
2023-05-08T11:37:24.154Z,98551.94
2023-05-08T11:39:51.169Z,98550.59
2023-05-08T11:42:29.513Z,98548.16
2023-05-08T11:45:09.267Z,98541.34
2023-05-08T11:47:41.518Z,98541.06
2023-05-08T11:50:09.838Z,98544.88
2023-05-08T11:52:39.027Z,98543.97
2023-05-08T11:55:08.807Z,98531.75
2023-05-08T11:57:36.001Z,98533.03
2023-05-08T12:00:06.441Z,98535.50
2023-05-08T12:02:43.515Z,98535.47
2023-05-08T12:05:11.485Z,98528.94
2023-05-08T12:07:48.081Z,98525.34
2023-05-08T12:10:15.819Z,98524.22
2023-05-08T12:12:44.266Z,98520.75
2023-05-08T12:15:13.689Z,98527.50
2023-05-08T12:17:40.934Z,98527.50
2023-05-08T12:20:18.291Z,98527.66
2023-05-08T12:22:53.047Z,98522.72
2023-05-08T12:25:20.149Z,98518.16
2023-05-08T12:27:47.313Z,98510.13
2023-05-08T12:30:15.166Z,98516.03
2023-05-08T12:32:43.801Z,98509.31
2023-05-08T12:35:14.671Z,98513.75
2023-05-08T12:37:41.612Z,98507.84
2023-05-08T12:40:22.541Z,98497.41
2023-05-08T12:42:50.819Z,98497.56
2023-05-08T12:45:22.399Z,98505.28
2023-05-08T12:47:50.357Z,98507.88
2023-05-08T12:50:20.974Z,98515.56
2023-05-08T12:52:49.955Z,98508.69
2023-05-08T12:55:29.925Z,98506.91
2023-05-08T12:58:15.252Z,98501.16
2023-05-08T13:00:44.890Z,98501.50
2023-05-08T13:03:13.940Z,98491.66
2023-05-08T13:05:45.629Z,98497.25
2023-05-08T13:08:12.718Z,98492.97
2023-05-08T13:10:56.398Z,98498.22
2023-05-08T13:13:26.004Z,98499.19
2023-05-08T13:15:54.597Z,98491.97
2023-05-08T13:18:24.302Z,98495.66
2023-05-08T13:20:51.016Z,98489.22
2023-05-08T13:23:17.809Z,98484.94
2023-05-08T13:25:44.451Z,98481.00
2023-05-08T13:28:11.297Z,98486.53
2023-05-08T13:30:38.400Z,98488.63
2023-05-08T13:33:05.783Z,98490.38
2023-05-08T13:35:33.848Z,98488.41
2023-05-08T13:38:00.778Z,98485.13
2023-05-08T13:40:27.960Z,98485.75
2023-05-08T13:42:54.576Z,98487.34
2023-05-08T13:45:21.505Z,98483.78
2023-05-08T13:47:49.706Z,98485.31
2023-05-08T13:50:19.401Z,98486.41
2023-05-08T13:52:46.108Z,98477.81
2023-05-08T13:55:14.038Z,98473.06
2023-05-08T13:57:41.590Z,98483.06
2023-05-08T14:00:09.575Z,98489.50
2023-05-08T14:02:37.839Z,98494.34
2023-05-08T14:05:08.070Z,98489.50
2023-05-08T14:07:35.903Z,98491.63
2023-05-08T14:10:02.779Z,98500.22
2023-05-08T14:12:29.840Z,98498.88
2023-05-08T14:14:56.557Z,98502.03
2023-05-08T14:17:23.397Z,98510.38
2023-05-08T14:19:50.063Z,98507.75
2023-05-08T14:22:16.825Z,98511.69
2023-05-08T14:24:44.338Z,98505.47
2023-05-08T14:27:11.502Z,98501.69
2023-05-08T14:29:38.151Z,98491.97
2023-05-08T14:32:05.363Z,98487.34
2023-05-08T14:34:32.088Z,98490.44
2023-05-08T14:36:58.773Z,98493.03
2023-05-08T14:39:25.530Z,98492.47
2023-05-08T14:42:20.773Z,98481.56
2023-05-08T14:44:42.008Z,98485.94
2023-05-08T14:47:09.403Z,98484.44
2023-05-08T14:49:38.437Z,98491.34
2023-05-08T14:52:06.642Z,98492.47
2023-05-08T14:54:33.792Z,98483.09
2023-05-08T14:57:00.685Z,98491.44
2023-05-08T14:59:27.531Z,98485.78
2023-05-08T15:01:54.178Z,98490.28
2023-05-08T15:04:21.003Z,98483.94
2023-05-08T15:06:47.749Z,98486.41
2023-05-08T15:09:16.339Z,98496.69
2023-05-08T15:11:43.054Z,98497.13
2023-05-08T15:14:10.063Z,98501.28
2023-05-08T15:16:36.775Z,98513.06
2023-05-08T15:19:03.664Z,98510.38
2023-05-08T15:21:31.216Z,98501.69
2023-05-08T15:23:57.940Z,98513.06
2023-05-08T15:26:24.720Z,98500.41
2023-05-08T15:28:51.515Z,98502.94
2023-05-08T15:31:18.546Z,98497.81
2023-05-08T15:33:45.899Z,98502.13
2023-05-08T15:36:13.826Z,98508.97
2023-05-08T15:38:43.885Z,98506.09
2023-05-08T15:41:14.821Z,98503.84
2023-05-08T15:43:45.198Z,98504.22
2023-05-08T15:46:11.949Z,98501.13
2023-05-08T15:48:38.694Z,98500.00
2023-05-08T15:51:05.891Z,98498.00
2023-05-08T15:53:33.931Z,98498.09
2023-05-08T15:56:00.498Z,98493.72
2023-05-08T15:58:27.682Z,98496.41
2023-05-08T16:00:54.375Z,98489.69
2023-05-08T16:03:21.109Z,98493.97
2023-05-08T16:05:48.037Z,98497.59
2023-05-08T16:08:14.774Z,98490.66
2023-05-08T16:10:42.060Z,98498.28
2023-05-08T16:13:09.628Z,98475.25
2023-05-08T16:15:36.405Z,98478.56
2023-05-08T16:18:03.353Z,98476.31
2023-05-08T16:20:31.517Z,98484.19
2023-05-08T16:22:59.593Z,98473.56
2023-05-08T16:25:26.369Z,98474.09
2023-05-08T16:27:53.153Z,98482.94
2023-05-08T16:30:22.453Z,98480.63
2023-05-08T16:32:49.088Z,98471.94
2023-05-08T16:35:16.031Z,98482.94
2023-05-08T16:37:43.389Z,98480.91
2023-05-08T16:40:10.439Z,98478.28
2023-05-08T16:42:37.861Z,98486.34
2023-05-08T16:45:05.385Z,98486.25
2023-05-08T16:47:32.745Z,98485.44
2023-05-08T16:49:59.883Z,98486.81
2023-05-08T16:52:26.898Z,98470.06
2023-05-08T16:54:53.754Z,98480.66
2023-05-08T16:57:20.634Z,98481.69
2023-05-08T16:59:47.266Z,98484.84
2023-05-08T17:02:18.670Z,98490.13
2023-05-08T17:04:49.333Z,98485.59
2023-05-08T17:07:16.933Z,98488.88
2023-05-08T17:09:44.365Z,98496.69
2023-05-08T17:12:11.118Z,98492.75
2023-05-08T17:14:39.477Z,98500.44
2023-05-08T17:17:06.948Z,98502.31
2023-05-08T17:19:33.827Z,98503.28
2023-05-08T17:22:00.791Z,98508.88
2023-05-08T17:24:27.611Z,98512.63
2023-05-08T17:26:54.325Z,98518.88
2023-05-08T17:29:21.018Z,98519.28
2023-05-08T17:31:47.760Z,98515.09
2023-05-08T17:34:14.459Z,98515.66
2023-05-08T17:36:41.229Z,98525.75
2023-05-08T17:39:08.076Z,98525.38
2023-05-08T17:41:34.825Z,98518.88
2023-05-08T17:44:01.556Z,98526.56
2023-05-08T17:46:28.285Z,98529.47
2023-05-08T17:49:05.593Z,98531.41
2023-05-08T17:51:34.769Z,98527.31
2023-05-08T17:54:01.574Z,98532.28
2023-05-08T17:58:55.589Z,98541.53
2023-05-08T18:01:22.353Z,98541.09
2023-05-08T18:03:49.218Z,98549.66
2023-05-08T18:06:19.314Z,98541.09
2023-05-08T18:08:47.279Z,98543.97
2023-05-08T18:11:22.825Z,98551.38
2023-05-08T18:13:50.349Z,98556.72
2023-05-08T18:16:18.247Z,98558.53
2023-05-08T18:18:45.581Z,98554.56
2023-05-08T18:21:12.234Z,98564.13
2023-05-08T18:23:39.619Z,98568.53
2023-05-08T18:26:06.578Z,98567.28
2023-05-08T18:28:33.550Z,98574.31
2023-05-08T18:31:00.378Z,98568.09
2023-05-08T18:33:27.287Z,98584.19
2023-05-08T18:35:53.936Z,98588.03
2023-05-08T18:38:20.667Z,98596.13
2023-05-08T18:40:47.399Z,98600.94
2023-05-08T18:43:14.381Z,98601.22
2023-05-08T18:45:41.633Z,98606.84
2023-05-08T18:48:09.596Z,98602.16
2023-05-08T18:50:36.574Z,98607.66
2023-05-08T18:53:03.265Z,98608.38
2023-05-08T18:55:29.959Z,98607.16
2023-05-08T18:57:56.723Z,98607.66
2023-05-08T19:00:23.471Z,98595.22
2023-05-08T19:02:50.340Z,98600.97
2023-05-08T19:05:17.832Z,98611.41
2023-05-08T19:07:45.455Z,98612.91
2023-05-08T19:10:12.645Z,98618.41
2023-05-08T19:12:39.759Z,98621.31
2023-05-08T19:15:08.906Z,98628.53
2023-05-08T19:17:36.925Z,98629.09
2023-05-08T19:20:04.288Z,98636.50
2023-05-08T19:22:33.772Z,98635.53
2023-05-08T19:25:02.882Z,98636.78
2023-05-08T19:27:29.426Z,98651.72
2023-05-08T19:29:56.202Z,98640.47
2023-05-08T19:32:23.244Z,98651.59
2023-05-08T19:34:49.947Z,98646.91
2023-05-08T19:37:16.593Z,98652.13
2023-05-08T19:39:43.453Z,98657.31
2023-05-08T19:42:11.408Z,98655.84
2023-05-08T19:44:38.334Z,98663.25
2023-05-08T19:47:05.505Z,98660.06
2023-05-08T19:49:32.306Z,98658.44
2023-05-08T19:51:58.980Z,98665.44
2023-05-08T19:54:25.694Z,98657.88
2023-05-08T19:56:52.360Z,98653.63
2023-05-08T19:59:19.057Z,98659.69
2023-05-08T20:01:45.841Z,98663.38
2023-05-08T20:04:12.658Z,98671.34
2023-05-08T20:06:39.328Z,98668.88
2023-05-08T20:09:06.495Z,98671.19
2023-05-08T20:11:33.155Z,98664.63
2023-05-08T20:13:59.917Z,98668.88
2023-05-08T20:16:27.086Z,98672.97
2023-05-08T20:18:53.875Z,98672.97
2023-05-08T20:21:20.800Z,98683.66
2023-05-08T20:23:47.542Z,98674.31
2023-05-08T20:26:14.430Z,98670.38
2023-05-08T20:28:41.036Z,98660.34
2023-05-08T20:31:08.068Z,98670.75
2023-05-08T20:33:34.955Z,98661.72
2023-05-08T20:36:01.616Z,98663.09
2023-05-08T20:38:28.267Z,98657.59
2023-05-08T20:40:58.166Z,98666.41
2023-05-08T20:43:27.047Z,98672.56
2023-05-08T20:45:53.850Z,98675.00
2023-05-08T20:48:20.507Z,98675.97
2023-05-08T20:50:48.328Z,98676.50
2023-05-08T20:53:15.496Z,98671.59
2023-05-08T20:55:42.082Z,98672.41
2023-05-08T20:58:09.235Z,98673.94
2023-05-08T21:00:36.422Z,98670.63
2023-05-08T21:03:03.295Z,98672.00
2023-05-08T21:05:29.988Z,98675.84
2023-05-08T21:08:02.357Z,98671.31
2023-05-08T21:10:31.241Z,98674.31
2023-05-08T21:12:58.013Z,98666.66
2023-05-08T21:15:24.803Z,98667.31
2023-05-08T21:17:51.516Z,98660.22
2023-05-08T21:20:18.449Z,98670.34
2023-05-08T21:22:46.388Z,98664.72
2023-05-08T21:25:15.185Z,98675.97
2023-05-08T21:27:42.607Z,98679.69
2023-05-08T21:30:14.952Z,98675.69
2023-05-08T21:32:45.757Z,98681.44
2023-05-08T21:35:13.419Z,98670.63
2023-05-08T21:37:40.353Z,98676.78
2023-05-08T21:40:08.152Z,98682.28
2023-05-08T21:42:34.791Z,98681.03
2023-05-08T21:45:01.666Z,98675.53
2023-05-08T21:47:28.434Z,98693.34
2023-05-08T21:49:55.358Z,98681.28
2023-05-08T21:52:22.556Z,98683.59
2023-05-08T21:54:50.136Z,98677.16
2023-05-08T21:57:16.927Z,98675.59
2023-05-08T21:59:43.685Z,98676.41
2023-05-08T22:02:11.206Z,98681.09
2023-05-08T22:04:38.185Z,98673.97
2023-05-08T22:07:04.832Z,98684.88
2023-05-08T22:09:31.658Z,98678.88
2023-05-08T22:11:58.327Z,98674.06
2023-05-08T22:14:25.084Z,98686.72
2023-05-08T22:16:51.727Z,98695.06
2023-05-08T22:19:18.389Z,98696.03
2023-05-08T22:21:44.987Z,98701.06
2023-05-08T22:24:11.776Z,98691.00
2023-05-08T22:26:38.398Z,98707.53
2023-05-08T22:29:05.458Z,98710.56
2023-05-08T22:31:32.140Z,98700.69
2023-05-08T22:33:58.891Z,98699.47
2023-05-08T22:36:25.627Z,98715.41
2023-05-08T22:38:52.395Z,98702.66
2023-05-08T22:41:19.149Z,98713.44
2023-05-08T22:43:45.863Z,98711.88
2023-05-08T22:46:12.507Z,98709.97
2023-05-08T22:48:39.366Z,98712.34
2023-05-08T22:51:06.987Z,98725.06
2023-05-08T22:53:33.673Z,98727.56
2023-05-08T22:56:00.335Z,98727.09
2023-05-08T22:58:29.217Z,98716.84
2023-05-08T23:00:56.024Z,98710.84
2023-05-08T23:03:22.783Z,98710.84
2023-05-08T23:05:49.531Z,98700.09
2023-05-08T23:08:16.210Z,98712.28
2023-05-08T23:10:43.783Z,98694.44
2023-05-08T23:13:10.758Z,98714.91
2023-05-08T23:15:37.386Z,98701.78
2023-05-08T23:18:04.314Z,98706.69
2023-05-08T23:20:31.036Z,98702.16
2023-05-08T23:22:57.680Z,98706.16
2023-05-08T23:25:24.412Z,98705.22
2023-05-08T23:27:51.162Z,98687.00
2023-05-08T23:30:18.075Z,98693.16
2023-05-08T23:32:45.384Z,98700.00
2023-05-08T23:35:12.526Z,98679.28
2023-05-08T23:37:39.449Z,98698.34
2023-05-08T23:40:07.279Z,98674.59
2023-05-08T23:42:33.971Z,98703.41
2023-05-08T23:45:00.524Z,98689.75
2023-05-08T23:47:27.227Z,98670.69
2023-05-08T23:49:53.948Z,98690.03
2023-05-08T23:52:20.916Z,98694.97
2023-05-08T23:54:47.549Z,98698.91
2023-05-08T23:57:14.244Z,98695.88
2023-05-08T23:59:40.839Z,98683.84
